createdAt,value
2023-01-22T00:02:21.934Z,12.76
2023-01-22T00:07:19.036Z,12.83
2023-01-22T00:12:16.294Z,12.82
2023-01-22T00:17:13.541Z,12.65
2023-01-22T00:22:10.926Z,12.94
2023-01-22T00:27:07.410Z,12.86
2023-01-22T00:32:07.185Z,12.85
2023-01-22T00:37:04.023Z,12.77
2023-01-22T00:42:00.688Z,12.91
2023-01-22T00:46:58.508Z,12.99
2023-01-22T00:51:55.803Z,12.80
2023-01-22T00:56:52.370Z,12.75
2023-01-22T01:01:49.357Z,12.56
2023-01-22T01:06:46.205Z,12.36
2023-01-22T01:11:43.344Z,12.30
2023-01-22T01:16:42.515Z,12.23
2023-01-22T01:21:39.142Z,12.15
2023-01-22T01:26:36.080Z,12.30
2023-01-22T01:31:33.794Z,12.20
2023-01-22T01:36:47.799Z,12.11
2023-01-22T01:41:45.578Z,12.02
2023-01-22T01:46:45.211Z,11.99
2023-01-22T01:51:43.174Z,11.96
2023-01-22T01:56:42.759Z,11.45
2023-01-22T02:01:39.876Z,12.06
2023-01-22T02:06:37.089Z,11.91
2023-01-22T02:11:33.974Z,11.82
2023-01-22T02:16:30.596Z,11.92
2023-01-22T02:21:32.723Z,11.94
2023-01-22T02:26:29.343Z,11.84
2023-01-22T02:31:26.395Z,11.79
2023-01-22T02:36:23.015Z,11.97
2023-01-22T02:41:21.599Z,12.03
2023-01-22T02:46:18.435Z,11.93
2023-01-22T02:51:14.977Z,12.13
2023-01-22T02:56:13.798Z,12.21
2023-01-22T03:01:18.257Z,12.45
2023-01-22T03:06:21.191Z,12.35
2023-01-22T03:11:17.892Z,12.35
2023-01-22T03:16:33.664Z,12.15
2023-01-22T03:21:32.128Z,12.10
2023-01-22T03:26:30.927Z,12.01
2023-01-22T03:31:28.639Z,12.10
2023-01-22T03:36:25.469Z,12.17
2023-01-22T03:41:26.695Z,12.25
2023-01-22T03:46:24.541Z,12.19
2023-01-22T03:51:26.021Z,12.35
2023-01-22T03:56:23.611Z,12.44
2023-01-22T04:01:24.202Z,12.47
2023-01-22T04:06:22.324Z,12.51
2023-01-22T04:11:20.034Z,12.70
2023-01-22T04:16:19.278Z,12.75
2023-01-22T04:21:27.897Z,12.75
2023-01-22T04:26:27.995Z,12.78
2023-01-22T04:31:27.150Z,12.90
2023-01-22T04:36:50.226Z,12.79
2023-01-22T04:41:47.997Z,12.75
2023-01-22T04:46:44.853Z,12.84
2023-01-22T04:51:43.178Z,12.88
2023-01-22T04:56:40.183Z,13.02
2023-01-22T05:01:38.759Z,12.90
2023-01-22T05:06:35.574Z,12.92
2023-01-22T05:11:32.240Z,12.92
2023-01-22T05:16:32.242Z,12.90
2023-01-22T05:21:30.269Z,12.94
2023-01-22T05:26:26.927Z,12.98
2023-01-22T05:31:34.813Z,12.94
2023-01-22T05:36:34.866Z,13.09
2023-01-22T05:41:37.863Z,12.87
2023-01-22T05:46:34.758Z,12.82
2023-01-22T05:51:44.263Z,12.86
2023-01-22T05:56:42.978Z,12.60
2023-01-22T06:01:40.133Z,12.87
2023-01-22T06:06:40.050Z,12.89
2023-01-22T06:11:38.159Z,12.65
2023-01-22T06:16:35.048Z,12.67
2023-01-22T06:21:57.507Z,12.85
2023-01-22T06:27:05.968Z,12.69
2023-01-22T06:32:19.555Z,12.39
2023-01-22T06:37:16.197Z,12.55
2023-01-22T06:42:13.873Z,12.70
2023-01-22T06:47:10.530Z,12.52
2023-01-22T06:52:10.258Z,12.29
2023-01-22T06:57:07.558Z,12.36
2023-01-22T07:02:07.594Z,12.24
2023-01-22T07:07:04.233Z,12.59
2023-01-22T07:12:01.557Z,12.58
2023-01-22T07:17:00.492Z,12.75
2023-01-22T07:21:57.865Z,12.73
2023-01-22T07:26:54.511Z,12.96
2023-01-22T07:31:51.370Z,13.09
2023-01-22T07:36:48.047Z,13.21
2023-01-22T07:41:45.263Z,13.25
2023-01-22T07:46:42.052Z,13.33
2023-01-22T07:51:47.204Z,13.28
2023-01-22T07:56:43.732Z,13.22
2023-01-22T08:01:40.941Z,13.33
2023-01-22T08:06:37.500Z,13.27
2023-01-22T08:11:34.089Z,13.01
2023-01-22T08:16:30.701Z,12.95
2023-01-22T08:21:27.919Z,13.16
2023-01-22T08:26:24.526Z,13.17
2023-01-22T08:31:27.851Z,13.32
2023-01-22T08:36:25.384Z,12.77
2023-01-22T08:41:22.932Z,12.79
2023-01-22T08:46:19.690Z,12.95
2023-01-22T08:51:16.319Z,12.91
2023-01-22T08:56:12.935Z,12.92
2023-01-22T09:01:15.097Z,13.02
2023-01-22T09:06:11.709Z,13.12
2023-01-22T09:11:08.418Z,13.22
2023-01-22T09:16:06.087Z,13.22
2023-01-22T09:21:03.958Z,12.90
2023-01-22T09:26:08.361Z,12.57
2023-01-22T09:31:05.220Z,11.83
2023-01-22T09:36:10.104Z,12.12
2023-01-22T09:41:12.493Z,11.94
2023-01-22T09:46:12.482Z,11.85
2023-01-22T09:51:11.882Z,11.81
2023-01-22T09:56:14.691Z,11.81
2023-01-22T10:01:11.444Z,11.99
2023-01-22T10:06:10.589Z,12.18
2023-01-22T10:11:10.070Z,12.36
2023-01-22T10:16:07.083Z,12.03
2023-01-22T10:21:05.074Z,12.20
2023-01-22T10:26:05.515Z,11.87
2023-01-22T10:31:03.121Z,11.96
2023-01-22T10:35:59.915Z,11.95
2023-01-22T10:40:58.421Z,11.97
2023-01-22T10:45:59.009Z,12.00
2023-01-22T10:51:13.233Z,12.01
2023-01-22T10:56:12.441Z,11.79
2023-01-22T11:01:23.454Z,11.86
2023-01-22T11:06:24.386Z,11.97
2023-01-22T11:11:25.640Z,12.05
2023-01-22T11:16:23.305Z,12.15
2023-01-22T11:21:25.100Z,12.38
2023-01-22T11:26:28.170Z,12.43
2023-01-22T11:31:32.748Z,12.37
2023-01-22T11:36:34.102Z,12.41
2023-01-22T11:41:40.812Z,12.64
2023-01-22T11:46:45.767Z,12.66
2023-01-22T11:51:47.890Z,12.81
2023-01-22T11:56:58.469Z,12.97
2023-01-22T12:02:02.546Z,13.07
2023-01-22T12:07:20.990Z,12.83
2023-01-22T12:12:24.234Z,13.00
2023-01-22T12:17:28.495Z,12.56
2023-01-22T12:22:28.708Z,12.66
2023-01-22T12:27:27.008Z,12.82
2023-01-22T12:32:27.121Z,13.07
2023-01-22T12:37:25.290Z,13.08
2023-01-22T12:42:27.474Z,13.12
2023-01-22T12:47:28.757Z,13.28
2023-01-22T12:52:35.964Z,13.41
2023-01-22T12:57:37.874Z,13.50
2023-01-22T13:02:38.463Z,13.54
2023-01-22T13:07:36.125Z,13.64
2023-01-22T13:12:43.162Z,13.73
2023-01-22T13:17:40.219Z,13.78
2023-01-22T13:22:36.939Z,13.93
2023-01-22T13:27:34.465Z,13.86
2023-01-22T13:32:32.036Z,13.89
2023-01-22T13:37:30.430Z,13.98
2023-01-22T13:42:27.397Z,13.95
2023-01-22T13:47:28.607Z,14.02
2023-01-22T13:52:27.619Z,14.07
2023-01-22T13:57:24.512Z,14.11
2023-01-22T14:02:22.431Z,14.16
2023-01-22T14:07:23.471Z,14.22
2023-01-22T14:12:21.601Z,14.19
2023-01-22T14:17:25.139Z,14.21
2023-01-22T14:22:21.934Z,14.24
2023-01-22T14:27:19.046Z,14.28
2023-01-22T14:32:16.257Z,14.21
2023-01-22T14:37:14.861Z,14.28
2023-01-22T14:42:11.462Z,14.28
2023-01-22T14:47:07.997Z,14.33
2023-01-22T14:52:05.279Z,14.36
2023-01-22T14:57:03.323Z,14.38
2023-01-22T15:02:00.094Z,14.43
2023-01-22T15:06:57.091Z,14.46
2023-01-22T15:11:54.408Z,14.46
2023-01-22T15:16:51.457Z,14.43
2023-01-22T15:21:48.181Z,14.41
2023-01-22T15:26:45.655Z,14.38
2023-01-22T15:31:43.289Z,14.39
2023-01-22T15:36:39.929Z,14.41
2023-01-22T15:41:37.076Z,14.28
2023-01-22T15:46:34.846Z,13.86
2023-01-22T15:51:32.217Z,13.79
2023-01-22T15:56:29.946Z,13.50
2023-01-22T16:01:27.026Z,13.57
2023-01-22T16:06:27.244Z,13.85
2023-01-22T16:11:25.252Z,13.88
2023-01-22T16:16:22.741Z,13.90
2023-01-22T16:21:19.876Z,13.95
2023-01-22T16:26:17.349Z,14.00
2023-01-22T16:31:17.523Z,13.96
2023-01-22T16:36:15.584Z,14.07
2023-01-22T16:41:26.555Z,14.12
2023-01-22T16:46:24.840Z,14.15
2023-01-22T16:51:24.828Z,14.12
2023-01-22T16:56:21.642Z,14.03
2023-01-22T17:01:18.311Z,13.86
2023-01-22T17:06:23.172Z,13.41
2023-01-22T17:11:19.992Z,13.27
2023-01-22T17:16:17.939Z,13.23
2023-01-22T17:21:17.670Z,12.91
2023-01-22T17:26:15.847Z,13.06
2023-01-22T17:31:15.064Z,13.23
2023-01-22T17:36:12.553Z,13.31
2023-01-22T17:41:11.198Z,13.26
2023-01-22T17:46:10.480Z,13.27
2023-01-22T17:51:08.318Z,13.29
2023-01-22T17:56:09.806Z,13.24
2023-01-22T18:01:07.780Z,13.20
2023-01-22T18:06:36.919Z,13.15
2023-01-22T18:11:35.061Z,13.05
2023-01-22T18:16:33.252Z,12.96
2023-01-22T18:21:30.126Z,12.97
2023-01-22T18:26:26.832Z,12.92
2023-01-22T18:31:26.236Z,12.93
2023-01-22T18:36:25.343Z,12.94
2023-01-22T18:41:24.634Z,13.00
2023-01-22T18:46:22.054Z,12.91
2023-01-22T18:51:19.659Z,12.86
2023-01-22T18:56:16.438Z,12.87
2023-01-22T19:01:16.617Z,12.79
2023-01-22T19:06:27.309Z,12.42
2023-01-22T19:11:24.763Z,12.17
2023-01-22T19:16:21.797Z,12.22
2023-01-22T19:21:19.912Z,12.12
2023-01-22T19:26:18.110Z,11.96
2023-01-22T19:31:16.571Z,12.00
2023-01-22T19:36:13.332Z,11.73
2023-01-22T19:41:09.872Z,11.95
2023-01-22T19:46:08.029Z,12.00
2023-01-22T19:51:07.663Z,11.63
2023-01-22T19:56:04.785Z,11.71
2023-01-22T20:01:07.690Z,11.64
2023-01-22T20:06:05.310Z,11.74
2023-01-22T20:11:02.531Z,11.41
2023-01-22T20:16:00.299Z,11.53
2023-01-22T20:20:58.543Z,11.33
2023-01-22T20:26:05.322Z,11.53
2023-01-22T20:31:07.179Z,11.44
2023-01-22T20:36:08.480Z,11.62
2023-01-22T20:41:08.672Z,11.20
2023-01-22T20:46:06.435Z,11.36
2023-01-22T20:51:03.445Z,11.34
2023-01-22T20:56:01.869Z,11.48
2023-01-22T21:01:03.339Z,11.07
2023-01-22T21:06:01.615Z,11.37
2023-01-22T21:10:59.159Z,10.84
2023-01-22T21:15:56.085Z,11.02
2023-01-22T21:20:53.401Z,11.10
2023-01-22T21:25:50.119Z,10.96
2023-01-22T21:30:46.706Z,11.00
2023-01-22T21:35:47.723Z,11.15
2023-01-22T21:40:44.963Z,11.10
2023-01-22T21:46:00.245Z,11.09
2023-01-22T21:50:56.919Z,10.89
2023-01-22T21:55:54.376Z,10.76
2023-01-22T22:00:50.919Z,11.05
2023-01-22T22:05:54.376Z,11.16
2023-01-22T22:10:51.259Z,10.94
2023-01-22T22:15:48.468Z,10.74
2023-01-22T22:20:45.218Z,10.70
2023-01-22T22:25:45.703Z,10.67
2023-01-22T22:30:42.285Z,10.77
2023-01-22T22:35:39.566Z,10.49
2023-01-22T22:40:36.132Z,10.73
2023-01-22T22:45:35.101Z,10.61
2023-01-22T22:50:31.806Z,10.46
2023-01-22T22:55:29.723Z,10.13
2023-01-22T23:00:26.435Z,10.12
2023-01-22T23:05:23.075Z,9.98
2023-01-22T23:10:28.397Z,9.86
2023-01-22T23:15:29.368Z,9.64
2023-01-22T23:20:26.152Z,9.53
2023-01-22T23:25:22.885Z,9.63
2023-01-22T23:30:19.863Z,9.44
2023-01-22T23:35:17.423Z,9.33
2023-01-22T23:40:14.109Z,9.27
2023-01-22T23:45:11.991Z,9.20
2023-01-22T23:50:09.690Z,9.24
2023-01-22T23:55:07.497Z,9.15
